sensor_id;sensor_type;location;lat;lon;timestamp;P1;durP1;ratioP1;P2;durP2;ratioP2
35084;SDS011;21267;51.032;6.998;2023-04-24T00:01:38;6.22;;;3.35;;
35084;SDS011;21267;51.032;6.998;2023-04-24T00:04:06;3.95;;;2.63;;
35084;SDS011;21267;51.032;6.998;2023-04-24T00:06:34;3.90;;;1.92;;
35084;SDS011;21267;51.032;6.998;2023-04-24T00:09:01;1.88;;;1.13;;
35084;SDS011;21267;51.032;6.998;2023-04-24T00:11:43;3.03;;;1.60;;
35084;SDS011;21267;51.032;6.998;2023-04-24T00:14:23;2.80;;;1.45;;
35084;SDS011;21267;51.032;6.998;2023-04-24T00:17:03;1.10;;;1.00;;
35084;SDS011;21267;51.032;6.998;2023-04-24T00:19:44;1.48;;;0.60;;
35084;SDS011;21267;51.032;6.998;2023-04-24T00:22:25;0.60;;;0.60;;
35084;SDS011;21267;51.032;6.998;2023-04-24T00:25:06;0.60;;;0.60;;
35084;SDS011;21267;51.032;6.998;2023-04-24T00:27:47;0.73;;;0.73;;
35084;SDS011;21267;51.032;6.998;2023-04-24T00:30:27;0.85;;;0.85;;
35084;SDS011;21267;51.032;6.998;2023-04-24T00:33:08;2.10;;;1.30;;
35084;SDS011;21267;51.032;6.998;2023-04-24T00:35:49;5.75;;;1.90;;
35084;SDS011;21267;51.032;6.998;2023-04-24T00:38:33;2.03;;;1.40;;
35084;SDS011;21267;51.032;6.998;2023-04-24T00:41:13;2.95;;;1.10;;
35084;SDS011;21267;51.032;6.998;2023-04-24T00:43:54;7.57;;;2.55;;
35084;SDS011;21267;51.032;6.998;2023-04-24T00:46:34;12.05;;;3.13;;
35084;SDS011;21267;51.032;6.998;2023-04-24T00:49:16;8.32;;;4.65;;
35084;SDS011;21267;51.032;6.998;2023-04-24T00:51:42;12.95;;;5.53;;
35084;SDS011;21267;51.032;6.998;2023-04-24T00:54:12;5.03;;;2.60;;
35084;SDS011;21267;51.032;6.998;2023-04-24T00:56:42;3.33;;;1.50;;
35084;SDS011;21267;51.032;6.998;2023-04-24T00:59:11;1.25;;;1.10;;
35084;SDS011;21267;51.032;6.998;2023-04-24T01:01:39;2.67;;;1.38;;
35084;SDS011;21267;51.032;6.998;2023-04-24T01:04:09;2.13;;;1.25;;
35084;SDS011;21267;51.032;6.998;2023-04-24T01:06:40;0.77;;;0.60;;
35084;SDS011;21267;51.032;6.998;2023-04-24T01:09:10;1.90;;;1.10;;
35084;SDS011;21267;51.032;6.998;2023-04-24T01:11:39;1.02;;;0.90;;
35084;SDS011;21267;51.032;6.998;2023-04-24T01:14:07;1.63;;;0.80;;
35084;SDS011;21267;51.032;6.998;2023-04-24T01:16:34;1.55;;;0.65;;
35084;SDS011;21267;51.032;6.998;2023-04-24T01:19:02;1.00;;;0.75;;
35084;SDS011;21267;51.032;6.998;2023-04-24T01:21:30;1.00;;;0.70;;
35084;SDS011;21267;51.032;6.998;2023-04-24T01:24:00;1.05;;;0.93;;
35084;SDS011;21267;51.032;6.998;2023-04-24T01:26:28;3.95;;;1.20;;
35084;SDS011;21267;51.032;6.998;2023-04-24T01:28:55;1.83;;;1.17;;
35084;SDS011;21267;51.032;6.998;2023-04-24T01:31:24;0.98;;;0.98;;
35084;SDS011;21267;51.032;6.998;2023-04-24T01:33:51;1.73;;;1.13;;
35084;SDS011;21267;51.032;6.998;2023-04-24T01:36:18;3.58;;;1.30;;
35084;SDS011;21267;51.032;6.998;2023-04-24T01:38:45;1.90;;;0.97;;
35084;SDS011;21267;51.032;6.998;2023-04-24T01:41:14;11.98;;;1.35;;
35084;SDS011;21267;51.032;6.998;2023-04-24T01:43:41;1.43;;;1.00;;
35084;SDS011;21267;51.032;6.998;2023-04-24T01:46:08;1.30;;;1.13;;
35084;SDS011;21267;51.032;6.998;2023-04-24T01:48:35;1.60;;;1.20;;
35084;SDS011;21267;51.032;6.998;2023-04-24T01:51:02;2.47;;;1.48;;
35084;SDS011;21267;51.032;6.998;2023-04-24T01:53:29;2.33;;;1.38;;
35084;SDS011;21267;51.032;6.998;2023-04-24T01:55:55;2.05;;;1.50;;
35084;SDS011;21267;51.032;6.998;2023-04-24T01:58:22;8.68;;;2.38;;
35084;SDS011;21267;51.032;6.998;2023-04-24T02:00:49;2.85;;;2.13;;
35084;SDS011;21267;51.032;6.998;2023-04-24T02:03:16;3.73;;;2.03;;
35084;SDS011;21267;51.032;6.998;2023-04-24T02:05:45;2.88;;;2.03;;
35084;SDS011;21267;51.032;6.998;2023-04-24T02:08:12;3.40;;;2.97;;
35084;SDS011;21267;51.032;6.998;2023-04-24T02:10:38;6.55;;;4.50;;
35084;SDS011;21267;51.032;6.998;2023-04-24T02:13:05;5.82;;;3.95;;
35084;SDS011;21267;51.032;6.998;2023-04-24T02:15:32;9.93;;;4.38;;
35084;SDS011;21267;51.032;6.998;2023-04-24T02:17:58;6.05;;;4.15;;
35084;SDS011;21267;51.032;6.998;2023-04-24T02:20:25;5.45;;;3.53;;
35084;SDS011;21267;51.032;6.998;2023-04-24T02:22:52;5.13;;;3.40;;
35084;SDS011;21267;51.032;6.998;2023-04-24T02:25:18;5.88;;;3.28;;
35084;SDS011;21267;51.032;6.998;2023-04-24T02:27:46;4.20;;;3.33;;
35084;SDS011;21267;51.032;6.998;2023-04-24T02:30:13;5.05;;;4.28;;
35084;SDS011;21267;51.032;6.998;2023-04-24T02:32:41;8.30;;;5.00;;
35084;SDS011;21267;51.032;6.998;2023-04-24T02:35:08;7.13;;;5.82;;
35084;SDS011;21267;51.032;6.998;2023-04-24T02:37:35;7.57;;;5.90;;
35084;SDS011;21267;51.032;6.998;2023-04-24T02:40:01;5.70;;;4.65;;
35084;SDS011;21267;51.032;6.998;2023-04-24T02:42:28;10.57;;;7.37;;
35084;SDS011;21267;51.032;6.998;2023-04-24T02:44:55;11.43;;;7.45;;
35084;SDS011;21267;51.032;6.998;2023-04-24T02:47:22;8.93;;;6.88;;
35084;SDS011;21267;51.032;6.998;2023-04-24T02:49:49;11.95;;;6.32;;
35084;SDS011;21267;51.032;6.998;2023-04-24T02:52:15;12.05;;;6.55;;
35084;SDS011;21267;51.032;6.998;2023-04-24T02:54:44;17.33;;;9.48;;
35084;SDS011;21267;51.032;6.998;2023-04-24T02:57:11;18.92;;;10.52;;
35084;SDS011;21267;51.032;6.998;2023-04-24T02:59:39;12.52;;;7.03;;
35084;SDS011;21267;51.032;6.998;2023-04-24T03:02:06;14.20;;;8.98;;
35084;SDS011;21267;51.032;6.998;2023-04-24T03:04:33;12.75;;;8.23;;
35084;SDS011;21267;51.032;6.998;2023-04-24T03:07:00;15.32;;;9.77;;
35084;SDS011;21267;51.032;6.998;2023-04-24T03:09:27;17.73;;;9.57;;
35084;SDS011;21267;51.032;6.998;2023-04-24T03:11:55;13.80;;;8.38;;
35084;SDS011;21267;51.032;6.998;2023-04-24T03:14:22;12.68;;;8.95;;
35084;SDS011;21267;51.032;6.998;2023-04-24T03:16:52;15.05;;;8.80;;
35084;SDS011;21267;51.032;6.998;2023-04-24T03:19:18;12.73;;;7.90;;
35084;SDS011;21267;51.032;6.998;2023-04-24T03:21:45;11.23;;;7.00;;
35084;SDS011;21267;51.032;6.998;2023-04-24T03:24:12;15.35;;;8.55;;
35084;SDS011;21267;51.032;6.998;2023-04-24T03:26:39;10.48;;;6.20;;
35084;SDS011;21267;51.032;6.998;2023-04-24T03:29:06;12.52;;;8.88;;
35084;SDS011;21267;51.032;6.998;2023-04-24T03:31:33;12.47;;;9.63;;
35084;SDS011;21267;51.032;6.998;2023-04-24T03:33:59;13.27;;;8.45;;
35084;SDS011;21267;51.032;6.998;2023-04-24T03:36:26;11.13;;;8.77;;
35084;SDS011;21267;51.032;6.998;2023-04-24T03:38:54;15.75;;;8.68;;
35084;SDS011;21267;51.032;6.998;2023-04-24T03:41:22;12.48;;;8.68;;
35084;SDS011;21267;51.032;6.998;2023-04-24T03:43:52;11.50;;;7.75;;
35084;SDS011;21267;51.032;6.998;2023-04-24T03:46:23;11.25;;;8.32;;
35084;SDS011;21267;51.032;6.998;2023-04-24T03:48:50;9.65;;;7.10;;
35084;SDS011;21267;51.032;6.998;2023-04-24T03:51:24;12.75;;;9.60;;
35084;SDS011;21267;51.032;6.998;2023-04-24T03:53:51;11.55;;;7.03;;
35084;SDS011;21267;51.032;6.998;2023-04-24T03:56:19;10.30;;;8.57;;
35084;SDS011;21267;51.032;6.998;2023-04-24T03:58:47;15.15;;;9.25;;
35084;SDS011;21267;51.032;6.998;2023-04-24T04:01:13;10.95;;;9.07;;
35084;SDS011;21267;51.032;6.998;2023-04-24T04:03:42;11.45;;;8.85;;
35084;SDS011;21267;51.032;6.998;2023-04-24T04:06:10;8.20;;;6.97;;
35084;SDS011;21267;51.032;6.998;2023-04-24T04:08:37;9.97;;;7.10;;
35084;SDS011;21267;51.032;6.998;2023-04-24T04:11:04;8.50;;;7.03;;
35084;SDS011;21267;51.032;6.998;2023-04-24T04:13:30;9.20;;;7.53;;
35084;SDS011;21267;51.032;6.998;2023-04-24T04:15:57;8.93;;;8.02;;
35084;SDS011;21267;51.032;6.998;2023-04-24T04:18:24;7.85;;;6.53;;
35084;SDS011;21267;51.032;6.998;2023-04-24T04:20:50;7.80;;;7.00;;
35084;SDS011;21267;51.032;6.998;2023-04-24T04:23:17;9.43;;;8.45;;
35084;SDS011;21267;51.032;6.998;2023-04-24T04:25:44;8.23;;;6.70;;
35084;SDS011;21267;51.032;6.998;2023-04-24T04:28:10;9.02;;;6.82;;
35084;SDS011;21267;51.032;6.998;2023-04-24T04:30:43;9.90;;;6.40;;
35084;SDS011;21267;51.032;6.998;2023-04-24T04:33:09;7.18;;;5.25;;
35084;SDS011;21267;51.032;6.998;2023-04-24T04:35:36;8.97;;;7.43;;
35084;SDS011;21267;51.032;6.998;2023-04-24T04:38:05;9.00;;;8.10;;
35084;SDS011;21267;51.032;6.998;2023-04-24T04:40:35;8.65;;;7.75;;
35084;SDS011;21267;51.032;6.998;2023-04-24T04:43:02;7.70;;;7.00;;
35084;SDS011;21267;51.032;6.998;2023-04-24T04:45:29;10.23;;;8.82;;
35084;SDS011;21267;51.032;6.998;2023-04-24T04:47:58;10.63;;;7.10;;
35084;SDS011;21267;51.032;6.998;2023-04-24T04:50:27;8.13;;;6.07;;
35084;SDS011;21267;51.032;6.998;2023-04-24T04:52:56;10.30;;;7.15;;
35084;SDS011;21267;51.032;6.998;2023-04-24T04:55:26;8.23;;;6.85;;
35084;SDS011;21267;51.032;6.998;2023-04-24T05:00:22;7.70;;;6.90;;
35084;SDS011;21267;51.032;6.998;2023-04-24T05:02:51;11.65;;;6.80;;
35084;SDS011;21267;51.032;6.998;2023-04-24T05:05:18;7.43;;;6.10;;
35084;SDS011;21267;51.032;6.998;2023-04-24T05:07:45;6.80;;;5.53;;
35084;SDS011;21267;51.032;6.998;2023-04-24T05:10:12;6.93;;;5.60;;
35084;SDS011;21267;51.032;6.998;2023-04-24T05:12:39;6.67;;;5.17;;
35084;SDS011;21267;51.032;6.998;2023-04-24T05:15:06;8.40;;;6.72;;
35084;SDS011;21267;51.032;6.998;2023-04-24T05:17:33;10.38;;;7.50;;
35084;SDS011;21267;51.032;6.998;2023-04-24T05:20:02;9.35;;;7.20;;
35084;SDS011;21267;51.032;6.998;2023-04-24T05:22:31;6.55;;;5.07;;
35084;SDS011;21267;51.032;6.998;2023-04-24T05:24:58;7.63;;;6.43;;
35084;SDS011;21267;51.032;6.998;2023-04-24T05:27:25;6.63;;;6.03;;
35084;SDS011;21267;51.032;6.998;2023-04-24T05:29:57;7.82;;;6.13;;
35084;SDS011;21267;51.032;6.998;2023-04-24T05:32:31;9.20;;;6.55;;
35084;SDS011;21267;51.032;6.998;2023-04-24T05:34:58;8.05;;;6.13;;
35084;SDS011;21267;51.032;6.998;2023-04-24T05:37:25;8.93;;;6.78;;
35084;SDS011;21267;51.032;6.998;2023-04-24T05:39:52;9.65;;;7.15;;
35084;SDS011;21267;51.032;6.998;2023-04-24T05:42:18;15.23;;;9.90;;
35084;SDS011;21267;51.032;6.998;2023-04-24T05:44:45;10.50;;;7.07;;
35084;SDS011;21267;51.032;6.998;2023-04-24T05:47:12;8.32;;;6.93;;
35084;SDS011;21267;51.032;6.998;2023-04-24T05:49:39;9.07;;;6.35;;
35084;SDS011;21267;51.032;6.998;2023-04-24T05:52:06;12.37;;;8.40;;
35084;SDS011;21267;51.032;6.998;2023-04-24T05:54:35;15.85;;;8.32;;
35084;SDS011;21267;51.032;6.998;2023-04-24T05:57:01;12.52;;;8.70;;
35084;SDS011;21267;51.032;6.998;2023-04-24T05:59:36;10.68;;;7.28;;
35084;SDS011;21267;51.032;6.998;2023-04-24T06:02:09;9.52;;;7.35;;
35084;SDS011;21267;51.032;6.998;2023-04-24T06:04:39;8.43;;;6.95;;
35084;SDS011;21267;51.032;6.998;2023-04-24T06:07:07;11.38;;;7.30;;
35084;SDS011;21267;51.032;6.998;2023-04-24T06:09:34;12.20;;;8.13;;
35084;SDS011;21267;51.032;6.998;2023-04-24T06:12:01;13.23;;;7.70;;
35084;SDS011;21267;51.032;6.998;2023-04-24T06:14:32;12.60;;;8.57;;
35084;SDS011;21267;51.032;6.998;2023-04-24T06:16:58;15.38;;;8.55;;
35084;SDS011;21267;51.032;6.998;2023-04-24T06:19:25;13.17;;;8.40;;
35084;SDS011;21267;51.032;6.998;2023-04-24T06:21:52;11.43;;;7.38;;
35084;SDS011;21267;51.032;6.998;2023-04-24T06:24:19;7.28;;;6.30;;
35084;SDS011;21267;51.032;6.998;2023-04-24T06:26:46;6.80;;;5.27;;
35084;SDS011;21267;51.032;6.998;2023-04-24T06:33:40;7.15;;;6.22;;
35084;SDS011;21267;51.032;6.998;2023-04-24T06:36:20;12.18;;;6.55;;
35084;SDS011;21267;51.032;6.998;2023-04-24T06:39:03;5.40;;;4.65;;
35084;SDS011;21267;51.032;6.998;2023-04-24T06:41:30;7.88;;;5.15;;
35084;SDS011;21267;51.032;6.998;2023-04-24T06:44:00;6.85;;;4.30;;
35084;SDS011;21267;51.032;6.998;2023-04-24T06:46:27;8.43;;;4.43;;
35084;SDS011;21267;51.032;6.998;2023-04-24T06:48:55;7.97;;;5.25;;
35084;SDS011;21267;51.032;6.998;2023-04-24T06:51:23;8.70;;;3.88;;
35084;SDS011;21267;51.032;6.998;2023-04-24T06:53:54;8.85;;;5.75;;
35084;SDS011;21267;51.032;6.998;2023-04-24T06:56:25;9.80;;;4.82;;
35084;SDS011;21267;51.032;6.998;2023-04-24T06:58:55;10.48;;;5.60;;
35084;SDS011;21267;51.032;6.998;2023-04-24T07:01:24;14.05;;;6.95;;
35084;SDS011;21267;51.032;6.998;2023-04-24T07:03:51;9.73;;;3.70;;
35084;SDS011;21267;51.032;6.998;2023-04-24T07:06:18;6.00;;;3.67;;
35084;SDS011;21267;51.032;6.998;2023-04-24T07:08:48;13.13;;;7.55;;
35084;SDS011;21267;51.032;6.998;2023-04-24T07:11:15;6.28;;;4.40;;
35084;SDS011;21267;51.032;6.998;2023-04-24T07:13:42;3.63;;;2.53;;
35084;SDS011;21267;51.032;6.998;2023-04-24T07:16:10;4.35;;;2.53;;
35084;SDS011;21267;51.032;6.998;2023-04-24T07:18:38;3.63;;;2.40;;
35084;SDS011;21267;51.032;6.998;2023-04-24T07:21:06;3.15;;;2.20;;
35084;SDS011;21267;51.032;6.998;2023-04-24T07:26:01;4.93;;;2.60;;
35084;SDS011;21267;51.032;6.998;2023-04-24T07:28:31;4.30;;;3.53;;
35084;SDS011;21267;51.032;6.998;2023-04-24T07:30:58;8.35;;;6.28;;
35084;SDS011;21267;51.032;6.998;2023-04-24T07:33:26;12.13;;;7.05;;
35084;SDS011;21267;51.032;6.998;2023-04-24T07:36:07;7.65;;;6.60;;
35084;SDS011;21267;51.032;6.998;2023-04-24T07:38:41;5.28;;;3.03;;
35084;SDS011;21267;51.032;6.998;2023-04-24T07:41:14;4.43;;;2.90;;
35084;SDS011;21267;51.032;6.998;2023-04-24T07:43:42;5.32;;;3.63;;
35084;SDS011;21267;51.032;6.998;2023-04-24T07:46:09;4.50;;;2.83;;
35084;SDS011;21267;51.032;6.998;2023-04-24T07:48:49;2.45;;;2.25;;
35084;SDS011;21267;51.032;6.998;2023-04-24T07:51:37;3.05;;;1.63;;
35084;SDS011;21267;51.032;6.998;2023-04-24T07:54:06;2.60;;;2.40;;
35084;SDS011;21267;51.032;6.998;2023-04-24T07:56:33;2.87;;;2.60;;
35084;SDS011;21267;51.032;6.998;2023-04-24T07:59:22;2.78;;;1.23;;
35084;SDS011;21267;51.032;6.998;2023-04-24T08:02:09;1.33;;;1.15;;
35084;SDS011;21267;51.032;6.998;2023-04-24T08:04:36;2.53;;;1.80;;
35084;SDS011;21267;51.032;6.998;2023-04-24T08:07:08;2.85;;;1.85;;
35084;SDS011;21267;51.032;6.998;2023-04-24T08:09:35;2.25;;;1.20;;
35084;SDS011;21267;51.032;6.998;2023-04-24T08:12:01;3.20;;;1.63;;
35084;SDS011;21267;51.032;6.998;2023-04-24T08:14:30;4.50;;;1.95;;
35084;SDS011;21267;51.032;6.998;2023-04-24T08:16:57;2.70;;;1.80;;
35084;SDS011;21267;51.032;6.998;2023-04-24T08:19:25;1.98;;;1.73;;
35084;SDS011;21267;51.032;6.998;2023-04-24T08:21:52;1.35;;;1.20;;
35084;SDS011;21267;51.032;6.998;2023-04-24T08:24:19;1.17;;;1.03;;
35084;SDS011;21267;51.032;6.998;2023-04-24T08:26:46;1.35;;;1.25;;
35084;SDS011;21267;51.032;6.998;2023-04-24T08:29:17;1.60;;;1.23;;
35084;SDS011;21267;51.032;6.998;2023-04-24T08:32:16;1.25;;;0.75;;
35084;SDS011;21267;51.032;6.998;2023-04-24T08:38:03;2.83;;;2.40;;
35084;SDS011;21267;51.032;6.998;2023-04-24T08:40:31;2.20;;;2.00;;
35084;SDS011;21267;51.032;6.998;2023-04-24T08:43:16;4.75;;;2.80;;
35084;SDS011;21267;51.032;6.998;2023-04-24T08:45:46;3.67;;;1.60;;
35084;SDS011;21267;51.032;6.998;2023-04-24T08:48:25;3.25;;;2.60;;
35084;SDS011;21267;51.032;6.998;2023-04-24T08:50:57;2.22;;;1.80;;
35084;SDS011;21267;51.032;6.998;2023-04-24T08:53:39;3.80;;;1.50;;
35084;SDS011;21267;51.032;6.998;2023-04-24T08:56:10;3.67;;;2.53;;
35084;SDS011;21267;51.032;6.998;2023-04-24T08:58:47;2.60;;;1.97;;
35084;SDS011;21267;51.032;6.998;2023-04-24T09:02:01;4.28;;;3.38;;
35084;SDS011;21267;51.032;6.998;2023-04-24T09:04:34;3.13;;;2.75;;
35084;SDS011;21267;51.032;6.998;2023-04-24T09:07:10;4.28;;;2.92;;
35084;SDS011;21267;51.032;6.998;2023-04-24T09:09:40;4.72;;;3.28;;
35084;SDS011;21267;51.032;6.998;2023-04-24T09:12:34;10.50;;;3.88;;
35084;SDS011;21267;51.032;6.998;2023-04-24T09:15:15;5.18;;;4.13;;
35084;SDS011;21267;51.032;6.998;2023-04-24T09:17:47;3.58;;;2.28;;
35084;SDS011;21267;51.032;6.998;2023-04-24T09:20:34;3.45;;;3.15;;
35084;SDS011;21267;51.032;6.998;2023-04-24T09:23:42;6.25;;;5.60;;
35084;SDS011;21267;51.032;6.998;2023-04-24T09:26:23;7.20;;;4.85;;
35084;SDS011;21267;51.032;6.998;2023-04-24T09:29:07;4.75;;;2.53;;
35084;SDS011;21267;51.032;6.998;2023-04-24T09:31:36;6.70;;;4.45;;
35084;SDS011;21267;51.032;6.998;2023-04-24T09:34:07;7.93;;;4.85;;
35084;SDS011;21267;51.032;6.998;2023-04-24T09:36:47;9.70;;;3.90;;
35084;SDS011;21267;51.032;6.998;2023-04-24T09:39:15;6.82;;;4.45;;
35084;SDS011;21267;51.032;6.998;2023-04-24T09:41:56;5.88;;;3.95;;
35084;SDS011;21267;51.032;6.998;2023-04-24T09:44:27;9.30;;;4.40;;
35084;SDS011;21267;51.032;6.998;2023-04-24T09:47:08;5.88;;;2.75;;
35084;SDS011;21267;51.032;6.998;2023-04-24T09:49:36;4.35;;;3.08;;
35084;SDS011;21267;51.032;6.998;2023-04-24T09:52:13;11.13;;;5.03;;
35084;SDS011;21267;51.032;6.998;2023-04-24T09:54:53;9.45;;;6.07;;
35084;SDS011;21267;51.032;6.998;2023-04-24T09:57:24;4.32;;;3.53;;
35084;SDS011;21267;51.032;6.998;2023-04-24T09:59:53;9.32;;;5.18;;
35084;SDS011;21267;51.032;6.998;2023-04-24T10:02:20;10.00;;;4.73;;
35084;SDS011;21267;51.032;6.998;2023-04-24T10:05:01;4.00;;;2.88;;
35084;SDS011;21267;51.032;6.998;2023-04-24T10:07:32;8.05;;;5.95;;
35084;SDS011;21267;51.032;6.998;2023-04-24T10:10:05;13.57;;;9.32;;
35084;SDS011;21267;51.032;6.998;2023-04-24T10:12:34;9.65;;;5.10;;
35084;SDS011;21267;51.032;6.998;2023-04-24T10:15:18;11.68;;;8.82;;
35084;SDS011;21267;51.032;6.998;2023-04-24T10:17:48;12.52;;;9.30;;
35084;SDS011;21267;51.032;6.998;2023-04-24T10:20:35;10.48;;;6.88;;
35084;SDS011;21267;51.032;6.998;2023-04-24T10:23:19;10.15;;;7.43;;
35084;SDS011;21267;51.032;6.998;2023-04-24T10:25:48;9.60;;;7.63;;
35084;SDS011;21267;51.032;6.998;2023-04-24T10:28:24;7.07;;;3.72;;
35084;SDS011;21267;51.032;6.998;2023-04-24T10:30:54;8.15;;;5.75;;
35084;SDS011;21267;51.032;6.998;2023-04-24T10:33:23;9.43;;;5.78;;
35084;SDS011;21267;51.032;6.998;2023-04-24T10:35:55;13.35;;;7.30;;
35084;SDS011;21267;51.032;6.998;2023-04-24T10:38:26;8.40;;;5.50;;
35084;SDS011;21267;51.032;6.998;2023-04-24T10:41:12;4.72;;;3.75;;
35084;SDS011;21267;51.032;6.998;2023-04-24T10:44:10;11.05;;;4.95;;
35084;SDS011;21267;51.032;6.998;2023-04-24T10:46:53;8.63;;;6.82;;
35084;SDS011;21267;51.032;6.998;2023-04-24T10:49:30;8.48;;;4.80;;
35084;SDS011;21267;51.032;6.998;2023-04-24T10:52:12;11.23;;;6.00;;
35084;SDS011;21267;51.032;6.998;2023-04-24T10:54:47;6.80;;;4.18;;
35084;SDS011;21267;51.032;6.998;2023-04-24T11:03:04;12.45;;;4.85;;
35084;SDS011;21267;51.032;6.998;2023-04-24T11:06:06;5.07;;;2.15;;
35084;SDS011;21267;51.032;6.998;2023-04-24T11:08:29;12.10;;;4.60;;
35084;SDS011;21267;51.032;6.998;2023-04-24T11:11:12;4.40;;;2.60;;
35084;SDS011;21267;51.032;6.998;2023-04-24T11:22:01;9.32;;;2.80;;
35084;SDS011;21267;51.032;6.998;2023-04-24T11:27:12;4.55;;;2.13;;
35084;SDS011;21267;51.032;6.998;2023-04-24T11:29:48;8.48;;;3.08;;
35084;SDS011;21267;51.032;6.998;2023-04-24T11:34:49;5.13;;;2.70;;
35084;SDS011;21267;51.032;6.998;2023-04-24T11:37:18;8.55;;;3.58;;
35084;SDS011;21267;51.032;6.998;2023-04-24T11:39:45;9.63;;;4.60;;
35084;SDS011;21267;51.032;6.998;2023-04-24T11:42:14;5.83;;;2.77;;
35084;SDS011;21267;51.032;6.998;2023-04-24T11:44:42;6.70;;;3.08;;
35084;SDS011;21267;51.032;6.998;2023-04-24T11:47:14;11.27;;;3.35;;
35084;SDS011;21267;51.032;6.998;2023-04-24T11:49:54;9.68;;;3.28;;
35084;SDS011;21267;51.032;6.998;2023-04-24T11:52:26;5.63;;;2.03;;
35084;SDS011;21267;51.032;6.998;2023-04-24T11:54:54;10.82;;;3.92;;
35084;SDS011;21267;51.032;6.998;2023-04-24T11:57:21;7.05;;;3.00;;
35084;SDS011;21267;51.032;6.998;2023-04-24T11:59:49;8.25;;;3.33;;
35084;SDS011;21267;51.032;6.998;2023-04-24T12:02:19;11.80;;;5.03;;
35084;SDS011;21267;51.032;6.998;2023-04-24T12:04:50;7.10;;;2.97;;
35084;SDS011;21267;51.032;6.998;2023-04-24T12:07:18;5.40;;;2.22;;
35084;SDS011;21267;51.032;6.998;2023-04-24T12:09:47;6.03;;;2.60;;
35084;SDS011;21267;51.032;6.998;2023-04-24T12:12:24;7.20;;;2.25;;
35084;SDS011;21267;51.032;6.998;2023-04-24T12:14:57;4.75;;;2.47;;
35084;SDS011;21267;51.032;6.998;2023-04-24T12:17:27;5.03;;;2.80;;
35084;SDS011;21267;51.032;6.998;2023-04-24T12:20:02;9.95;;;3.92;;
35084;SDS011;21267;51.032;6.998;2023-04-24T12:25:24;3.85;;;2.28;;
35084;SDS011;21267;51.032;6.998;2023-04-24T12:30:33;8.80;;;2.38;;
35084;SDS011;21267;51.032;6.998;2023-04-24T12:33:19;7.45;;;1.75;;
35084;SDS011;21267;51.032;6.998;2023-04-24T12:35:48;6.72;;;2.17;;
35084;SDS011;21267;51.032;6.998;2023-04-24T12:38:21;6.55;;;2.67;;
35084;SDS011;21267;51.032;6.998;2023-04-24T12:41:04;3.38;;;1.65;;
35084;SDS011;21267;51.032;6.998;2023-04-24T12:43:33;5.47;;;2.53;;
35084;SDS011;21267;51.032;6.998;2023-04-24T12:46:01;4.80;;;2.35;;
35084;SDS011;21267;51.032;6.998;2023-04-24T12:48:29;7.03;;;3.30;;
35084;SDS011;21267;51.032;6.998;2023-04-24T12:50:57;3.97;;;1.50;;
35084;SDS011;21267;51.032;6.998;2023-04-24T12:53:27;6.78;;;2.80;;
35084;SDS011;21267;51.032;6.998;2023-04-24T12:55:58;5.80;;;1.50;;
35084;SDS011;21267;51.032;6.998;2023-04-24T12:58:25;3.97;;;2.30;;
35084;SDS011;21267;51.032;6.998;2023-04-24T13:00:52;7.90;;;3.05;;
35084;SDS011;21267;51.032;6.998;2023-04-24T13:03:19;5.55;;;2.33;;
35084;SDS011;21267;51.032;6.998;2023-04-24T13:05:46;4.72;;;2.20;;
35084;SDS011;21267;51.032;6.998;2023-04-24T13:08:16;3.78;;;1.63;;
35084;SDS011;21267;51.032;6.998;2023-04-24T13:10:42;4.00;;;1.65;;
35084;SDS011;21267;51.032;6.998;2023-04-24T13:13:14;4.65;;;2.40;;
35084;SDS011;21267;51.032;6.998;2023-04-24T13:15:41;4.85;;;1.80;;
35084;SDS011;21267;51.032;6.998;2023-04-24T13:18:08;4.88;;;2.60;;
35084;SDS011;21267;51.032;6.998;2023-04-24T13:20:34;7.00;;;2.58;;
35084;SDS011;21267;51.032;6.998;2023-04-24T13:23:01;3.80;;;1.77;;
35084;SDS011;21267;51.032;6.998;2023-04-24T13:25:30;5.90;;;2.27;;
35084;SDS011;21267;51.032;6.998;2023-04-24T13:28:02;3.50;;;1.85;;
35084;SDS011;21267;51.032;6.998;2023-04-24T13:30:29;7.40;;;1.73;;
35084;SDS011;21267;51.032;6.998;2023-04-24T13:32:56;2.95;;;1.85;;
35084;SDS011;21267;51.032;6.998;2023-04-24T13:35:23;3.17;;;1.57;;
35084;SDS011;21267;51.032;6.998;2023-04-24T13:37:52;1.00;;;0.93;;
35084;SDS011;21267;51.032;6.998;2023-04-24T13:40:19;5.18;;;2.30;;
35084;SDS011;21267;51.032;6.998;2023-04-24T13:42:47;7.93;;;2.05;;
35084;SDS011;21267;51.032;6.998;2023-04-24T13:45:14;8.63;;;3.08;;
35084;SDS011;21267;51.032;6.998;2023-04-24T13:47:50;10.82;;;3.58;;
35084;SDS011;21267;51.032;6.998;2023-04-24T13:50:18;3.00;;;2.38;;
35084;SDS011;21267;51.032;6.998;2023-04-24T13:52:45;3.13;;;2.83;;
35084;SDS011;21267;51.032;6.998;2023-04-24T13:55:12;3.97;;;1.57;;
35084;SDS011;21267;51.032;6.998;2023-04-24T13:57:38;4.57;;;1.90;;
35084;SDS011;21267;51.032;6.998;2023-04-24T14:00:06;3.17;;;1.20;;
35084;SDS011;21267;51.032;6.998;2023-04-24T14:02:38;2.97;;;1.50;;
35084;SDS011;21267;51.032;6.998;2023-04-24T14:05:06;3.47;;;1.80;;
35084;SDS011;21267;51.032;6.998;2023-04-24T14:07:33;6.40;;;2.80;;
35084;SDS011;21267;51.032;6.998;2023-04-24T14:09:59;3.35;;;1.50;;
35084;SDS011;21267;51.032;6.998;2023-04-24T14:14:57;4.20;;;1.83;;
35084;SDS011;21267;51.032;6.998;2023-04-24T14:17:24;6.25;;;2.80;;
35084;SDS011;21267;51.032;6.998;2023-04-24T14:19:52;3.58;;;1.92;;
35084;SDS011;21267;51.032;6.998;2023-04-24T14:22:22;12.68;;;2.67;;
35084;SDS011;21267;51.032;6.998;2023-04-24T14:24:49;4.47;;;2.33;;
35084;SDS011;21267;51.032;6.998;2023-04-24T14:27:16;3.97;;;1.73;;
35084;SDS011;21267;51.032;6.998;2023-04-24T14:29:43;2.30;;;1.40;;
35084;SDS011;21267;51.032;6.998;2023-04-24T14:32:11;6.45;;;1.80;;
35084;SDS011;21267;51.032;6.998;2023-04-24T14:34:41;4.15;;;2.25;;
35084;SDS011;21267;51.032;6.998;2023-04-24T14:37:08;4.20;;;2.00;;
35084;SDS011;21267;51.032;6.998;2023-04-24T14:39:35;4.38;;;2.85;;
35084;SDS011;21267;51.032;6.998;2023-04-24T14:42:01;5.97;;;2.45;;
35084;SDS011;21267;51.032;6.998;2023-04-24T14:44:28;3.90;;;1.67;;
35084;SDS011;21267;51.032;6.998;2023-04-24T14:46:58;3.63;;;2.10;;
35084;SDS011;21267;51.032;6.998;2023-04-24T14:49:25;6.28;;;2.78;;
35084;SDS011;21267;51.032;6.998;2023-04-24T14:51:58;7.75;;;3.55;;
35084;SDS011;21267;51.032;6.998;2023-04-24T14:54:25;8.45;;;2.50;;
35084;SDS011;21267;51.032;6.998;2023-04-24T14:56:56;3.65;;;1.95;;
35084;SDS011;21267;51.032;6.998;2023-04-24T14:59:35;7.45;;;2.50;;
35084;SDS011;21267;51.032;6.998;2023-04-24T15:02:04;6.13;;;2.10;;
35084;SDS011;21267;51.032;6.998;2023-04-24T15:04:42;3.58;;;1.83;;
35084;SDS011;21267;51.032;6.998;2023-04-24T15:07:12;1.97;;;1.33;;
35084;SDS011;21267;51.032;6.998;2023-04-24T15:09:39;2.58;;;1.88;;
35084;SDS011;21267;51.032;6.998;2023-04-24T15:12:06;8.82;;;2.92;;
35084;SDS011;21267;51.032;6.998;2023-04-24T15:14:33;8.23;;;2.17;;
35084;SDS011;21267;51.032;6.998;2023-04-24T15:16:59;3.85;;;2.30;;
35084;SDS011;21267;51.032;6.998;2023-04-24T15:19:26;5.30;;;2.03;;
35084;SDS011;21267;51.032;6.998;2023-04-24T15:21:53;5.45;;;2.17;;
35084;SDS011;21267;51.032;6.998;2023-04-24T15:24:19;2.97;;;1.45;;
35084;SDS011;21267;51.032;6.998;2023-04-24T15:26:49;3.83;;;2.28;;
35084;SDS011;21267;51.032;6.998;2023-04-24T15:29:16;3.85;;;1.85;;
35084;SDS011;21267;51.032;6.998;2023-04-24T15:31:42;3.15;;;1.85;;
35084;SDS011;21267;51.032;6.998;2023-04-24T15:34:09;4.50;;;2.97;;
35084;SDS011;21267;51.032;6.998;2023-04-24T15:36:38;3.42;;;1.40;;
35084;SDS011;21267;51.032;6.998;2023-04-24T15:39:05;4.97;;;1.95;;
35084;SDS011;21267;51.032;6.998;2023-04-24T15:41:37;2.45;;;1.30;;
35084;SDS011;21267;51.032;6.998;2023-04-24T15:44:04;2.92;;;1.45;;
35084;SDS011;21267;51.032;6.998;2023-04-24T15:46:34;2.33;;;1.33;;